Hauptseite
METAR-TAF:

METAR-TAF

Flughäfen :

Bückeburg, Deutschland

Heeresflugplatz Bückeburg

Breite: 52-17N, Länge: 009-05E, Höhe: 70 m

Beobachtung

Neuester Wetterbericht von vor 1 Stunde und 9 Minuten, um 10:20 UTC
Wind 4 kt aus Nord/Nordost
Temperatur 10°C
Luftfeuchtigkeit 32%
Luftdruck 1 hPa
Sichtweite: 8000 m

METAR: ETHB 251020Z AUTO 03004KT 8000 // ////// 10/M06 Q0001 ///

Zeit: 12:29 (11:29 UTC)

Prognose

Neuester Wetterbericht von vor 24 Stunden und 51 Minuten, um 10:38 UTC
Gültige Prognose vom 24 um 09 UTC bis 24 um 18 UTC
Wind 8 kt aus Ost
Sichtweite: 1100 m
Leicht bewölkt in der Höhe von 25000 ft

TAF: ETHB 241038Z 2409/2418 08008KT 9999 NSW FEW250 CANCEL 1100

Wetterbeobachtungen und Prognosen von mehr als 4000 Flughäfen (METAR und TAF Bericht).

Die verfügbaren Stationen werden durch gelbe und rote Markierungen auf der Karte dargestellt.

Führen Sie die Maus auf sie, um den Namen der Station zu sehen.

Darauf klicken, um die Beobachtung von Wetterbeobachtungen und Prognosen zu sehen.

Um die Karte zu ändern : klicken Sie auf den grünen Tasten mit einem schwarzen Kreuz Zum Vergrößern, auf den grünen Button mit einem Gedankenstrich zu verkleinern, oder auf die grünen Pfeile für benachbarte Karten.


METAR-TAF: